createdAt,value
2017-11-09T00:01:23.465Z,19.13
2017-11-09T00:03:56.554Z,22.28
2017-11-09T00:06:24.093Z,20.25
2017-11-09T00:08:51.633Z,21.72
2017-11-09T00:11:19.929Z,20.68
2017-11-09T00:13:47.497Z,28.25
2017-11-09T00:16:15.042Z,24.63
2017-11-09T00:18:42.591Z,28.22
2017-11-09T00:21:10.885Z,26.32
2017-11-09T00:23:38.451Z,29.48
2017-11-09T00:26:05.999Z,27.77
2017-11-09T00:28:33.530Z,22.08
2017-11-09T00:31:01.847Z,25.97
2017-11-09T00:33:29.369Z,21.45
2017-11-09T00:35:56.918Z,22.93
2017-11-09T00:38:24.446Z,24.07
2017-11-09T00:40:52.772Z,21.67
2017-11-09T00:43:20.293Z,26.25
2017-11-09T00:45:47.844Z,20.40
2017-11-09T00:48:15.377Z,21.38
2017-11-09T00:50:43.703Z,20.75
2017-11-09T00:53:11.233Z,18.75
2017-11-09T00:55:39.541Z,18.42
2017-11-09T00:58:07.069Z,19.78
2017-11-09T01:00:35.405Z,18.38
2017-11-09T01:03:02.934Z,18.73
2017-11-09T01:05:30.462Z,18.82
2017-11-09T01:07:58.786Z,18.87
2017-11-09T01:10:27.093Z,16.85
2017-11-09T01:12:54.650Z,20.03
2017-11-09T01:15:22.185Z,19.20
2017-11-09T01:17:49.731Z,17.73
2017-11-09T01:20:18.013Z,21.43
2017-11-09T01:22:45.568Z,20.63
2017-11-09T01:25:13.093Z,18.70
2017-11-09T01:27:40.656Z,17.92
2017-11-09T01:30:08.961Z,18.15
2017-11-09T01:32:36.489Z,20.27
2017-11-09T01:35:04.045Z,19.32
2017-11-09T01:37:32.338Z,19.18
2017-11-09T01:40:00.649Z,18.18
2017-11-09T01:42:28.183Z,19.37
2017-11-09T01:44:55.748Z,18.85
2017-11-09T01:47:23.279Z,16.78
2017-11-09T01:49:51.590Z,17.32
2017-11-09T01:52:19.119Z,18.82
2017-11-09T01:54:46.666Z,18.42
2017-11-09T01:57:14.193Z,19.32
2017-11-09T01:59:42.506Z,18.72
2017-11-09T02:02:10.039Z,19.22
2017-11-09T02:04:37.706Z,18.07
2017-11-09T02:07:05.237Z,16.70
2017-11-09T02:09:33.525Z,18.63
2017-11-09T02:12:01.842Z,16.17
2017-11-09T02:14:29.375Z,17.95
2017-11-09T02:16:56.926Z,20.97
2017-11-09T02:19:24.468Z,17.55
2017-11-09T02:21:52.785Z,17.28
2017-11-09T02:24:20.310Z,18.57
2017-11-09T02:26:47.854Z,17.95
2017-11-09T02:29:15.391Z,19.03
2017-11-09T02:31:43.714Z,17.85
2017-11-09T02:34:12.010Z,16.87
2017-11-09T02:36:39.561Z,15.33
2017-11-09T02:39:07.094Z,15.75
2017-11-09T02:41:35.394Z,16.18
2017-11-09T02:44:02.951Z,17.38
2017-11-09T02:46:30.492Z,16.88
2017-11-09T02:48:58.050Z,17.22
2017-11-09T02:51:26.341Z,16.63
2017-11-09T02:53:53.890Z,15.90
2017-11-09T02:56:22.186Z,15.57
2017-11-09T02:58:49.745Z,17.43
2017-11-09T03:01:18.037Z,16.40
2017-11-09T03:03:45.597Z,17.33
2017-11-09T03:06:13.885Z,16.58
2017-11-09T03:08:41.442Z,15.83
2017-11-09T03:11:09.733Z,15.40
2017-11-09T03:13:38.094Z,16.35
2017-11-09T03:16:05.621Z,16.00
2017-11-09T03:18:33.918Z,18.30
2017-11-09T03:21:02.238Z,14.57
2017-11-09T03:23:29.766Z,14.53
2017-11-09T03:25:58.077Z,13.85
2017-11-09T03:28:25.601Z,14.12
2017-11-09T03:30:53.923Z,16.52
2017-11-09T03:33:22.212Z,16.15
2017-11-09T03:35:49.754Z,13.30
2017-11-09T03:38:17.286Z,13.82
2017-11-09T03:40:45.606Z,13.30
2017-11-09T03:43:13.136Z,12.88
2017-11-09T03:45:40.697Z,12.65
2017-11-09T03:48:08.232Z,12.87
2017-11-09T03:50:36.539Z,12.48
2017-11-09T03:53:04.096Z,13.53
2017-11-09T03:55:31.624Z,12.68
2017-11-09T03:57:59.946Z,10.95
2017-11-09T04:00:28.241Z,13.17
2017-11-09T04:02:55.794Z,13.03
2017-11-09T04:05:23.334Z,10.48
2017-11-09T04:07:50.885Z,11.02
2017-11-09T04:10:19.193Z,10.88
2017-11-09T04:12:46.762Z,10.10
2017-11-09T04:15:14.290Z,10.20
2017-11-09T04:17:41.809Z,10.50
2017-11-09T04:20:10.122Z,10.18
2017-11-09T04:22:37.646Z,9.43
2017-11-09T04:25:05.200Z,12.08
2017-11-09T04:27:32.736Z,10.88
2017-11-09T04:30:01.082Z,9.85
2017-11-09T04:32:28.615Z,10.30
2017-11-09T04:34:56.909Z,11.27
2017-11-09T04:37:24.454Z,11.28
2017-11-09T04:39:52.750Z,10.83
2017-11-09T04:42:20.297Z,10.43
2017-11-09T04:44:47.826Z,13.70
2017-11-09T04:47:15.389Z,12.50
2017-11-09T04:49:43.682Z,13.57
2017-11-09T04:52:11.212Z,12.42
2017-11-09T04:54:38.762Z,13.07
2017-11-09T04:57:06.295Z,13.20
2017-11-09T04:59:33.841Z,14.57
2017-11-09T05:02:02.135Z,14.52
2017-11-09T05:04:30.451Z,13.73
2017-11-09T05:06:57.973Z,14.00
2017-11-09T05:09:26.285Z,12.87
2017-11-09T05:11:54.577Z,13.87
2017-11-09T05:14:22.898Z,13.65
2017-11-09T05:16:50.421Z,15.02
2017-11-09T05:19:18.750Z,14.43
2017-11-09T05:21:47.046Z,12.47
2017-11-09T05:24:15.342Z,13.70
2017-11-09T05:26:43.658Z,14.48
2017-11-09T05:29:11.181Z,14.07
2017-11-09T05:31:39.494Z,14.28
2017-11-09T05:34:07.026Z,14.07
2017-11-09T05:36:34.578Z,15.10
2017-11-09T05:39:02.118Z,14.07
2017-11-09T05:41:30.430Z,14.18
2017-11-09T05:43:57.958Z,14.82
2017-11-09T05:46:25.509Z,15.68
2017-11-09T05:48:53.041Z,15.37
2017-11-09T05:51:21.367Z,16.33
2017-11-09T05:53:48.897Z,16.53
2017-11-09T05:56:16.422Z,14.68
2017-11-09T05:58:44.734Z,14.10
2017-11-09T06:01:13.034Z,14.75
2017-11-09T06:03:40.587Z,16.90
2017-11-09T06:06:08.119Z,15.62
2017-11-09T06:08:35.662Z,14.20
2017-11-09T06:11:03.961Z,14.30
2017-11-09T06:13:31.501Z,14.13
2017-11-09T06:15:59.029Z,21.63
2017-11-09T06:18:27.345Z,32.30
2017-11-09T06:20:55.638Z,20.73
2017-11-09T06:23:23.217Z,17.73
2017-11-09T06:25:50.750Z,17.65
2017-11-09T06:28:18.282Z,17.78
2017-11-09T06:30:46.600Z,17.85
2017-11-09T06:33:14.894Z,17.72
2017-11-09T06:35:43.210Z,15.95
2017-11-09T06:38:10.729Z,12.92
2017-11-09T06:40:39.042Z,13.23
2017-11-09T06:43:06.574Z,14.00
2017-11-09T06:45:34.127Z,14.77
2017-11-09T06:48:01.654Z,14.85
2017-11-09T06:50:29.994Z,13.40
2017-11-09T06:52:58.310Z,16.13
2017-11-09T06:55:25.865Z,14.53
2017-11-09T06:57:53.409Z,13.75
2017-11-09T07:00:21.703Z,15.02
2017-11-09T07:02:49.262Z,15.58
2017-11-09T07:05:16.781Z,14.45
2017-11-09T07:07:44.329Z,14.62
2017-11-09T07:10:12.623Z,13.95
2017-11-09T07:12:40.938Z,14.63
2017-11-09T07:15:08.474Z,15.57
2017-11-09T07:17:36.026Z,14.20
2017-11-09T07:20:04.327Z,14.37
2017-11-09T07:22:31.893Z,14.07
2017-11-09T07:24:59.423Z,13.75
2017-11-09T07:27:26.950Z,14.82
2017-11-09T07:29:55.272Z,13.27
2017-11-09T07:32:22.803Z,12.88
2017-11-09T07:34:50.367Z,14.73
2017-11-09T07:37:17.898Z,11.52
2017-11-09T07:39:46.221Z,12.00
2017-11-09T07:42:14.518Z,11.38
2017-11-09T07:44:42.077Z,11.57
2017-11-09T07:47:09.618Z,12.45
2017-11-09T07:49:37.213Z,12.38
2017-11-09T07:52:05.512Z,11.82
2017-11-09T07:54:33.054Z,14.40
2017-11-09T07:57:01.374Z,29.20
2017-11-09T07:59:28.910Z,13.67
2017-11-09T08:01:57.229Z,13.57
2017-11-09T08:04:25.521Z,13.58
2017-11-09T08:06:53.069Z,12.72
2017-11-09T08:09:20.598Z,13.57
2017-11-09T08:11:48.909Z,14.58
2017-11-09T08:14:16.438Z,13.22
2017-11-09T08:16:43.994Z,12.97
2017-11-09T08:19:11.525Z,14.25
2017-11-09T08:21:39.833Z,14.78
2017-11-09T08:24:12.313Z,12.77
2017-11-09T08:26:41.871Z,13.43
2017-11-09T08:29:10.716Z,14.00
2017-11-09T08:31:39.439Z,12.15
2017-11-09T08:34:07.742Z,13.15
2017-11-09T08:36:35.291Z,14.72
2017-11-09T08:39:02.819Z,12.65
2017-11-09T08:41:31.138Z,15.97
2017-11-09T08:43:58.693Z,11.85
2017-11-09T08:46:26.244Z,12.00
2017-11-09T08:48:54.155Z,18.85
2017-11-09T08:51:22.509Z,12.70
2017-11-09T08:53:50.035Z,12.40
2017-11-09T08:56:17.587Z,12.72
2017-11-09T08:58:45.115Z,11.38
2017-11-09T09:01:13.427Z,12.08
2017-11-09T09:03:40.960Z,11.48
2017-11-09T09:06:08.518Z,12.25
2017-11-09T09:08:36.814Z,12.13
2017-11-09T09:11:05.134Z,10.52
2017-11-09T09:13:32.673Z,12.60
2017-11-09T09:16:00.990Z,11.70
2017-11-09T09:18:28.530Z,13.20
2017-11-09T09:21:06.766Z,14.07
2017-11-09T09:23:34.310Z,13.32
2017-11-09T09:26:20.533Z,14.08
2017-11-09T09:28:54.368Z,13.52
2017-11-09T09:31:24.537Z,12.98
2017-11-09T09:33:58.718Z,14.07
2017-11-09T09:36:29.139Z,13.63
2017-11-09T09:39:03.406Z,13.55
2017-11-09T09:41:31.718Z,15.17
2017-11-09T09:43:59.245Z,16.42
2017-11-09T09:46:26.803Z,16.03
2017-11-09T09:48:54.338Z,14.12
2017-11-09T09:51:22.677Z,17.53
2017-11-09T09:54:00.458Z,15.58
2017-11-09T09:56:28.794Z,15.93
2017-11-09T09:58:56.313Z,16.50
2017-11-09T10:01:24.602Z,17.32
2017-11-09T10:03:52.922Z,15.53
2017-11-09T10:06:20.451Z,16.98
2017-11-09T10:08:48.000Z,15.75
2017-11-09T10:11:16.301Z,16.58
2017-11-09T10:13:43.853Z,15.57
2017-11-09T10:16:11.382Z,18.32
2017-11-09T10:18:39.703Z,16.70
2017-11-09T10:21:08.007Z,16.22
2017-11-09T10:23:35.595Z,18.50
2017-11-09T10:26:03.129Z,17.70
2017-11-09T10:28:34.355Z,13.90
2017-11-09T10:31:02.657Z,17.07
2017-11-09T10:33:30.210Z,18.92
2017-11-09T10:35:57.733Z,17.47
2017-11-09T10:38:26.050Z,18.58
2017-11-09T10:40:54.343Z,17.32
2017-11-09T10:43:21.889Z,20.22
2017-11-09T10:45:49.421Z,16.95
2017-11-09T10:48:17.758Z,21.32
2017-11-09T10:50:46.067Z,21.52
2017-11-09T10:53:13.622Z,24.78
2017-11-09T10:55:41.930Z,25.72
2017-11-09T10:58:09.481Z,25.68
2017-11-09T11:00:43.566Z,32.68
2017-11-09T11:03:11.126Z,34.18
2017-11-09T11:05:38.654Z,28.50
2017-11-09T11:08:06.974Z,28.48
2017-11-09T11:10:35.274Z,29.12
2017-11-09T11:13:02.822Z,25.16
2017-11-09T11:15:30.376Z,27.22
2017-11-09T11:17:57.931Z,25.10
2017-11-09T11:20:26.226Z,23.33
2017-11-09T11:22:53.786Z,23.52
2017-11-09T11:25:21.330Z,20.17
2017-11-09T11:27:48.877Z,19.94
2017-11-09T11:30:17.184Z,20.75
2017-11-09T11:32:44.738Z,19.40
2017-11-09T11:35:12.282Z,21.28
2017-11-09T11:37:39.826Z,21.54
2017-11-09T11:40:08.141Z,27.43
2017-11-09T11:42:35.869Z,28.48
2017-11-09T11:45:04.187Z,29.20
2017-11-09T11:47:33.646Z,23.72
2017-11-09T11:50:01.973Z,23.66
2017-11-09T11:52:29.506Z,24.90
2017-11-09T11:54:57.825Z,26.34
2017-11-09T11:57:25.362Z,24.12
2017-11-09T11:59:53.678Z,26.04
2017-11-09T12:02:21.206Z,24.34
2017-11-09T12:04:51.529Z,25.37
2017-11-09T12:07:19.063Z,24.76
2017-11-09T12:09:47.386Z,25.72
2017-11-09T12:12:14.926Z,26.40
2017-11-09T12:14:42.483Z,28.32
2017-11-09T12:17:10.022Z,30.04
2017-11-09T12:19:37.582Z,27.84
2017-11-09T12:22:05.897Z,25.10
2017-11-09T12:24:33.456Z,24.94
2017-11-09T12:27:01.755Z,26.50
2017-11-09T12:29:29.320Z,20.72
2017-11-09T12:31:57.617Z,18.98
2017-11-09T12:34:25.178Z,18.40
2017-11-09T12:36:52.713Z,21.54
2017-11-09T12:39:20.271Z,21.32
2017-11-09T12:41:48.566Z,25.38
2017-11-09T12:44:16.123Z,26.16
2017-11-09T12:46:43.666Z,34.16
2017-11-09T12:49:11.225Z,31.84
2017-11-09T12:51:39.525Z,31.54
2017-11-09T12:54:07.851Z,27.60
2017-11-09T12:56:35.392Z,24.86
2017-11-09T12:59:02.948Z,23.02
2017-11-09T13:01:31.251Z,19.46
2017-11-09T13:03:58.790Z,17.88
2017-11-09T13:06:26.337Z,16.86
2017-11-09T13:08:54.629Z,17.08
2017-11-09T13:11:22.950Z,17.30
2017-11-09T13:13:50.481Z,16.10
2017-11-09T13:16:18.035Z,18.32
2017-11-09T13:18:45.574Z,17.60
2017-11-09T13:21:13.886Z,17.64
2017-11-09T13:23:41.418Z,18.62
2017-11-09T13:26:08.973Z,21.58
2017-11-09T13:28:36.506Z,19.88
2017-11-09T13:31:04.826Z,18.14
2017-11-09T13:33:32.374Z,19.03
2017-11-09T13:35:59.922Z,20.00
2017-11-09T13:38:27.462Z,26.33
2017-11-09T13:40:55.784Z,19.08
2017-11-09T13:43:23.305Z,17.16
2017-11-09T13:45:51.617Z,16.34
2017-11-09T13:48:19.147Z,21.12
2017-11-09T13:50:47.506Z,20.90
2017-11-09T13:53:15.814Z,25.70
2017-11-09T13:55:43.369Z,22.58
2017-11-09T13:58:10.903Z,22.70
2017-11-09T14:00:40.006Z,21.45
2017-11-09T14:03:07.533Z,19.80
2017-11-09T14:05:35.081Z,22.10
2017-11-09T14:08:02.609Z,19.74
2017-11-09T14:10:30.938Z,21.35
2017-11-09T14:12:58.477Z,20.57
2017-11-09T14:15:26.021Z,20.88
2017-11-09T14:17:53.542Z,20.40
2017-11-09T14:20:21.855Z,20.47
2017-11-09T14:22:49.383Z,20.08
2017-11-09T14:25:17.735Z,20.92
2017-11-09T14:27:45.265Z,20.34
2017-11-09T14:30:13.561Z,21.00
2017-11-09T14:32:41.117Z,20.30
2017-11-09T14:35:08.641Z,21.12
2017-11-09T14:37:36.342Z,21.53
2017-11-09T14:40:04.630Z,22.98
2017-11-09T14:42:32.189Z,23.03
2017-11-09T14:44:59.720Z,21.58
2017-11-09T14:47:27.278Z,23.77
2017-11-09T14:49:55.569Z,22.28
2017-11-09T14:52:23.887Z,20.76
2017-11-09T14:54:52.193Z,20.28
2017-11-09T14:57:19.747Z,18.02
2017-11-09T14:59:48.054Z,18.55
2017-11-09T15:02:15.612Z,19.76
2017-11-09T15:04:43.142Z,17.00
2017-11-09T15:07:11.464Z,18.50
2017-11-09T15:09:39.769Z,17.90
2017-11-09T15:12:08.090Z,19.17
2017-11-09T15:14:35.638Z,18.37
2017-11-09T15:17:03.195Z,19.23
2017-11-09T15:19:30.737Z,18.13
2017-11-09T15:21:59.053Z,17.95
2017-11-09T15:24:26.592Z,18.53
2017-11-09T15:26:54.133Z,20.42
2017-11-09T15:29:21.665Z,16.52
2017-11-09T15:31:49.981Z,17.70
2017-11-09T15:34:17.522Z,17.32
2017-11-09T15:36:45.081Z,18.50
2017-11-09T15:39:12.613Z,21.90
2017-11-09T15:41:40.930Z,21.72
2017-11-09T15:44:08.453Z,21.10
2017-11-09T15:46:36.012Z,20.47
2017-11-09T15:49:03.546Z,22.25
2017-11-09T15:51:31.886Z,21.67
2017-11-09T15:53:59.427Z,25.78
2017-11-09T15:56:26.956Z,22.58
2017-11-09T15:58:54.506Z,20.50
2017-11-09T16:01:22.805Z,20.97
2017-11-09T16:03:50.360Z,22.60
2017-11-09T16:06:17.910Z,23.77
2017-11-09T16:08:46.345Z,22.08
2017-11-09T16:11:14.646Z,23.65
2017-11-09T16:13:42.200Z,23.48
2017-11-09T16:16:09.729Z,24.43
2017-11-09T16:18:38.050Z,22.58
2017-11-09T16:21:06.343Z,24.58
2017-11-09T16:23:33.902Z,21.97
2017-11-09T16:26:02.194Z,21.52
2017-11-09T16:28:32.317Z,22.80
2017-11-09T16:31:00.619Z,21.33
2017-11-09T16:33:28.185Z,20.93
2017-11-09T16:35:55.714Z,27.55
2017-11-09T16:38:23.258Z,21.88
2017-11-09T16:40:51.549Z,22.65
2017-11-09T16:43:19.098Z,21.72
2017-11-09T16:45:47.392Z,21.63
2017-11-09T16:48:14.942Z,22.95
2017-11-09T16:50:43.244Z,22.03
2017-11-09T16:53:10.794Z,20.83
2017-11-09T16:55:41.238Z,21.53
2017-11-09T16:58:08.799Z,21.48
2017-11-09T17:00:37.107Z,21.02
2017-11-09T17:03:04.662Z,20.83
2017-11-09T17:05:32.957Z,23.80
2017-11-09T17:08:00.514Z,22.78
2017-11-09T17:10:28.808Z,20.93
2017-11-09T17:12:56.357Z,20.35
2017-11-09T17:15:29.763Z,22.58
2017-11-09T17:17:57.318Z,23.87
2017-11-09T17:20:25.626Z,23.28
2017-11-09T17:22:53.170Z,24.00
2017-11-09T17:25:21.457Z,24.28
2017-11-09T17:27:49.752Z,28.35
2017-11-09T17:30:18.065Z,27.03
2017-11-09T17:32:45.589Z,27.13
2017-11-09T17:35:13.903Z,24.42
2017-11-09T17:37:41.433Z,30.02
2017-11-09T17:40:09.737Z,25.80
2017-11-09T17:42:42.167Z,31.87
2017-11-09T17:45:10.490Z,27.28
2017-11-09T17:47:38.017Z,26.05
2017-11-09T17:50:06.329Z,24.95
2017-11-09T17:52:33.849Z,22.60
2017-11-09T17:55:01.397Z,27.97
2017-11-09T17:57:28.920Z,31.80
2017-11-09T18:00:03.001Z,27.38
2017-11-09T18:02:30.529Z,24.82
2017-11-09T18:04:58.070Z,34.13
2017-11-09T18:07:25.589Z,29.58
2017-11-09T18:09:53.905Z,30.13
2017-11-09T18:12:21.438Z,31.12
2017-11-09T18:14:48.981Z,35.55
2017-11-09T18:17:16.509Z,29.77
2017-11-09T18:19:44.822Z,25.50
2017-11-09T18:22:12.345Z,34.93
2017-11-09T18:24:39.886Z,32.28
2017-11-09T18:27:07.409Z,26.42
2017-11-09T18:29:35.730Z,27.20
2017-11-09T18:32:04.023Z,26.93
2017-11-09T18:34:31.578Z,25.92
2017-11-09T18:36:59.110Z,24.33
2017-11-09T18:39:27.423Z,22.55
2017-11-09T18:41:55.714Z,21.93
2017-11-09T18:44:23.262Z,22.22
2017-11-09T18:46:51.567Z,19.95
2017-11-09T18:49:19.116Z,19.88
2017-11-09T18:51:47.410Z,19.67
2017-11-09T18:54:14.958Z,19.72
2017-11-09T18:56:42.494Z,20.88
2017-11-09T18:59:15.697Z,19.53
2017-11-09T19:01:43.997Z,20.60
2017-11-09T19:04:11.532Z,19.28
2017-11-09T19:06:39.086Z,18.97
2017-11-09T19:09:08.526Z,18.22
2017-11-09T19:11:36.882Z,18.47
2017-11-09T19:14:04.416Z,17.95
2017-11-09T19:16:31.966Z,19.48
2017-11-09T19:19:00.259Z,19.45
2017-11-09T19:21:28.589Z,18.47
2017-11-09T19:23:56.135Z,21.15
2017-11-09T19:26:23.705Z,21.13
2017-11-09T19:28:51.235Z,19.25
2017-11-09T19:31:19.544Z,21.42
2017-11-09T19:33:47.072Z,19.38
2017-11-09T19:36:14.640Z,20.50
2017-11-09T19:38:42.207Z,19.57
2017-11-09T19:41:10.527Z,20.92
2017-11-09T19:43:38.061Z,20.33
2017-11-09T19:46:05.612Z,19.65
2017-11-09T19:48:33.145Z,20.97
2017-11-09T19:51:01.469Z,20.37
2017-11-09T19:53:29.006Z,19.20
2017-11-09T19:55:57.316Z,19.03
2017-11-09T19:58:24.844Z,19.23
2017-11-09T20:00:53.157Z,21.05
2017-11-09T20:03:20.698Z,19.27
2017-11-09T20:05:48.254Z,19.50
2017-11-09T20:08:16.550Z,18.10
2017-11-09T20:10:44.865Z,18.23
2017-11-09T20:13:12.388Z,18.03
2017-11-09T20:15:39.946Z,17.48
2017-11-09T20:18:07.483Z,18.03
2017-11-09T20:20:35.830Z,17.52
2017-11-09T20:23:03.357Z,17.07
2017-11-09T20:25:31.733Z,16.28
2017-11-09T20:27:59.303Z,15.57
2017-11-09T20:30:27.616Z,16.85
2017-11-09T20:32:55.141Z,17.30
2017-11-09T20:35:22.670Z,18.37
2017-11-09T20:37:50.987Z,18.20
2017-11-09T20:40:19.282Z,16.52
2017-11-09T20:42:46.834Z,19.37
2017-11-09T20:45:14.366Z,20.65
2017-11-09T20:47:41.923Z,27.30
2017-11-09T20:50:10.212Z,21.00
2017-11-09T20:52:37.757Z,22.08
2017-11-09T20:55:05.289Z,20.95
2017-11-09T20:57:32.851Z,20.80
2017-11-09T21:00:01.142Z,20.55
2017-11-09T21:02:28.702Z,24.37
2017-11-09T21:04:56.997Z,28.67
2017-11-09T21:07:25.305Z,26.80
2017-11-09T21:09:53.594Z,21.70
2017-11-09T21:12:21.146Z,49.65
2017-11-09T21:14:48.679Z,20.53
2017-11-09T21:17:16.234Z,21.12
2017-11-09T21:19:44.526Z,18.35
2017-11-09T21:22:12.849Z,19.42
2017-11-09T21:24:40.378Z,18.02
2017-11-09T21:27:07.934Z,19.85
2017-11-09T21:29:35.456Z,19.63
2017-11-09T21:32:03.772Z,20.55
2017-11-09T21:34:32.072Z,22.67
2017-11-09T21:37:00.382Z,18.63
2017-11-09T21:39:27.914Z,18.82
2017-11-09T21:41:56.224Z,20.47
2017-11-09T21:44:23.758Z,20.32
2017-11-09T21:46:51.432Z,19.23
2017-11-09T21:49:18.964Z,18.18
2017-11-09T21:51:47.279Z,19.30
2017-11-09T21:54:14.809Z,18.53
2017-11-09T21:56:42.366Z,17.62
2017-11-09T21:59:10.661Z,21.08
2017-11-09T22:01:38.987Z,19.12
2017-11-09T22:04:06.514Z,19.95
2017-11-09T22:06:34.038Z,17.88
2017-11-09T22:09:01.590Z,18.35
2017-11-09T22:11:29.897Z,19.67
2017-11-09T22:13:57.458Z,16.88
2017-11-09T22:16:24.986Z,17.48
2017-11-09T22:18:55.165Z,17.57
2017-11-09T22:21:23.450Z,17.20
2017-11-09T22:23:51.861Z,18.95
2017-11-09T22:26:19.393Z,17.03
2017-11-09T22:28:46.944Z,17.95
2017-11-09T22:31:15.246Z,16.95
2017-11-09T22:33:42.799Z,18.03
2017-11-09T22:36:10.337Z,18.58
2017-11-09T22:38:37.885Z,19.95
2017-11-09T22:41:06.183Z,16.37
2017-11-09T22:43:33.729Z,18.77
2017-11-09T22:46:01.262Z,17.33
2017-11-09T22:48:28.809Z,15.90
2017-11-09T22:50:57.100Z,15.92
2017-11-09T22:53:25.409Z,16.35
2017-11-09T22:55:52.941Z,17.37
2017-11-09T22:58:20.456Z,16.55
2017-11-09T23:00:48.771Z,16.15
2017-11-09T23:03:17.070Z,15.58
2017-11-09T23:05:44.618Z,16.50
2017-11-09T23:08:12.132Z,17.07
2017-11-09T23:10:40.442Z,16.02
2017-11-09T23:13:07.966Z,16.75
2017-11-09T23:15:36.277Z,17.08
2017-11-09T23:18:03.805Z,15.88
2017-11-09T23:20:32.134Z,14.78
2017-11-09T23:22:59.666Z,13.70
2017-11-09T23:25:33.006Z,15.23
2017-11-09T23:28:03.445Z,14.38
2017-11-09T23:30:31.732Z,13.78
2017-11-09T23:32:59.285Z,13.05
2017-11-09T23:35:26.811Z,15.85
2017-11-09T23:37:54.358Z,16.40
2017-11-09T23:40:22.650Z,14.03
2017-11-09T23:42:50.207Z,21.97
2017-11-09T23:45:17.730Z,15.43
2017-11-09T23:47:45.261Z,14.42
2017-11-09T23:50:13.569Z,14.68
2017-11-09T23:52:41.098Z,14.68
2017-11-09T23:55:08.650Z,13.57
2017-11-09T23:57:36.182Z,14.83
